sensor_id;sensor_type;location;lat;lon;timestamp;temperature;humidity
15906;DHT22;8051;50.820;4.884;2023-02-28T00:01:11;0.40;99.90
15906;DHT22;8051;50.820;4.884;2023-02-28T00:03:39;0.40;99.90
15906;DHT22;8051;50.820;4.884;2023-02-28T00:06:07;0.40;99.90
15906;DHT22;8051;50.820;4.884;2023-02-28T00:08:35;0.40;99.90
15906;DHT22;8051;50.820;4.884;2023-02-28T00:11:03;0.40;99.90
15906;DHT22;8051;50.820;4.884;2023-02-28T00:13:31;0.40;99.90
15906;DHT22;8051;50.820;4.884;2023-02-28T00:16:01;0.40;99.90
15906;DHT22;8051;50.820;4.884;2023-02-28T00:18:31;0.30;99.90
15906;DHT22;8051;50.820;4.884;2023-02-28T00:20:58;0.30;99.90
15906;DHT22;8051;50.820;4.884;2023-02-28T00:23:26;0.30;99.90
15906;DHT22;8051;50.820;4.884;2023-02-28T00:25:54;0.30;99.90
15906;DHT22;8051;50.820;4.884;2023-02-28T00:28:22;0.30;99.90
15906;DHT22;8051;50.820;4.884;2023-02-28T00:30:49;0.30;99.90
15906;DHT22;8051;50.820;4.884;2023-02-28T00:33:17;0.20;99.90
15906;DHT22;8051;50.820;4.884;2023-02-28T00:35:46;0.20;99.90
15906;DHT22;8051;50.820;4.884;2023-02-28T00:38:15;0.10;99.90
15906;DHT22;8051;50.820;4.884;2023-02-28T00:40:42;0.00;99.90
15906;DHT22;8051;50.820;4.884;2023-02-28T00:43:10;0.00;99.90
15906;DHT22;8051;50.820;4.884;2023-02-28T00:45:38;0.00;99.90
15906;DHT22;8051;50.820;4.884;2023-02-28T00:48:05;0.00;99.90
15906;DHT22;8051;50.820;4.884;2023-02-28T00:50:33;-0.10;99.90
15906;DHT22;8051;50.820;4.884;2023-02-28T00:53:02;-0.10;99.90
15906;DHT22;8051;50.820;4.884;2023-02-28T00:55:29;-0.20;99.90
15906;DHT22;8051;50.820;4.884;2023-02-28T00:57:57;-0.10;99.90
15906;DHT22;8051;50.820;4.884;2023-02-28T01:00:24;-0.20;99.90
15906;DHT22;8051;50.820;4.884;2023-02-28T01:02:52;-0.20;99.90
15906;DHT22;8051;50.820;4.884;2023-02-28T01:05:19;-0.20;99.90
15906;DHT22;8051;50.820;4.884;2023-02-28T01:07:47;-0.30;99.90
15906;DHT22;8051;50.820;4.884;2023-02-28T01:10:16;-0.30;99.90
15906;DHT22;8051;50.820;4.884;2023-02-28T01:12:44;-0.30;99.90
15906;DHT22;8051;50.820;4.884;2023-02-28T01:15:11;-0.40;99.90
15906;DHT22;8051;50.820;4.884;2023-02-28T01:17:39;-0.40;99.90
15906;DHT22;8051;50.820;4.884;2023-02-28T01:20:07;-0.40;99.90
15906;DHT22;8051;50.820;4.884;2023-02-28T01:22:35;-0.40;99.90
15906;DHT22;8051;50.820;4.884;2023-02-28T01:25:03;-0.40;99.90
15906;DHT22;8051;50.820;4.884;2023-02-28T01:27:33;-0.40;99.90
15906;DHT22;8051;50.820;4.884;2023-02-28T01:30:01;-0.50;99.90
15906;DHT22;8051;50.820;4.884;2023-02-28T01:32:29;-0.50;99.90
15906;DHT22;8051;50.820;4.884;2023-02-28T01:34:56;-0.50;99.90
15906;DHT22;8051;50.820;4.884;2023-02-28T01:37:24;-0.50;99.90
15906;DHT22;8051;50.820;4.884;2023-02-28T01:39:51;-0.50;99.90
15906;DHT22;8051;50.820;4.884;2023-02-28T01:42:19;-0.60;99.90
15906;DHT22;8051;50.820;4.884;2023-02-28T01:45:02;-0.60;99.90
15906;DHT22;8051;50.820;4.884;2023-02-28T01:47:36;-0.60;99.90
15906;DHT22;8051;50.820;4.884;2023-02-28T01:50:09;-0.60;99.90
15906;DHT22;8051;50.820;4.884;2023-02-28T01:52:40;-0.60;99.90
15906;DHT22;8051;50.820;4.884;2023-02-28T01:55:08;-0.70;99.90
15906;DHT22;8051;50.820;4.884;2023-02-28T01:57:40;-0.70;99.90
15906;DHT22;8051;50.820;4.884;2023-02-28T02:00:14;-0.80;99.90
15906;DHT22;8051;50.820;4.884;2023-02-28T02:02:43;-0.80;99.90
15906;DHT22;8051;50.820;4.884;2023-02-28T02:05:14;-0.90;99.90
15906;DHT22;8051;50.820;4.884;2023-02-28T02:07:43;-0.90;99.90
15906;DHT22;8051;50.820;4.884;2023-02-28T02:10:14;-1.00;99.90
15906;DHT22;8051;50.820;4.884;2023-02-28T02:13:08;-1.00;99.90
15906;DHT22;8051;50.820;4.884;2023-02-28T02:15:42;-1.00;99.90
15906;DHT22;8051;50.820;4.884;2023-02-28T02:18:18;-1.00;99.90
15906;DHT22;8051;50.820;4.884;2023-02-28T02:27:15;-1.00;99.90
15906;DHT22;8051;50.820;4.884;2023-02-28T02:33:28;-1.00;99.90
15906;DHT22;8051;50.820;4.884;2023-02-28T02:36:02;-1.00;99.90
15906;DHT22;8051;50.820;4.884;2023-02-28T02:38:36;-1.00;99.90
15906;DHT22;8051;50.820;4.884;2023-02-28T02:41:18;-0.90;99.90
15906;DHT22;8051;50.820;4.884;2023-02-28T02:43:50;-0.90;99.90
15906;DHT22;8051;50.820;4.884;2023-02-28T02:46:21;-0.90;99.90
15906;DHT22;8051;50.820;4.884;2023-02-28T02:48:52;-1.00;99.90
15906;DHT22;8051;50.820;4.884;2023-02-28T02:51:24;-1.00;99.90
15906;DHT22;8051;50.820;4.884;2023-02-28T02:53:56;-1.00;99.90
15906;DHT22;8051;50.820;4.884;2023-02-28T02:56:26;-1.10;99.90
15906;DHT22;8051;50.820;4.884;2023-02-28T02:58:59;-1.10;99.90
15906;DHT22;8051;50.820;4.884;2023-02-28T03:01:29;-1.10;99.90
15906;DHT22;8051;50.820;4.884;2023-02-28T03:04:01;-1.10;99.90
15906;DHT22;8051;50.820;4.884;2023-02-28T03:06:31;-1.20;99.90
15906;DHT22;8051;50.820;4.884;2023-02-28T03:09:00;-1.10;99.90
15906;DHT22;8051;50.820;4.884;2023-02-28T03:11:27;-1.20;99.90
15906;DHT22;8051;50.820;4.884;2023-02-28T03:14:07;-1.20;99.90
15906;DHT22;8051;50.820;4.884;2023-02-28T03:19:47;-1.20;99.90
15906;DHT22;8051;50.820;4.884;2023-02-28T03:22:36;-1.20;99.90
15906;DHT22;8051;50.820;4.884;2023-02-28T03:25:09;-1.30;99.90
15906;DHT22;8051;50.820;4.884;2023-02-28T03:27:44;-1.30;99.90
15906;DHT22;8051;50.820;4.884;2023-02-28T03:30:24;-1.40;99.90
15906;DHT22;8051;50.820;4.884;2023-02-28T03:32:56;-1.40;99.90
15906;DHT22;8051;50.820;4.884;2023-02-28T03:35:27;-1.40;99.90
15906;DHT22;8051;50.820;4.884;2023-02-28T03:38:05;-1.40;99.90
15906;DHT22;8051;50.820;4.884;2023-02-28T03:40:36;-1.40;99.90
15906;DHT22;8051;50.820;4.884;2023-02-28T03:43:10;-1.40;99.90
15906;DHT22;8051;50.820;4.884;2023-02-28T03:45:39;-1.50;99.90
15906;DHT22;8051;50.820;4.884;2023-02-28T03:48:11;-1.40;99.90
15906;DHT22;8051;50.820;4.884;2023-02-28T03:50:41;-1.50;99.90
15906;DHT22;8051;50.820;4.884;2023-02-28T03:53:13;-1.50;99.90
15906;DHT22;8051;50.820;4.884;2023-02-28T03:55:42;-1.50;99.90
15906;DHT22;8051;50.820;4.884;2023-02-28T03:58:15;-1.50;99.90
15906;DHT22;8051;50.820;4.884;2023-02-28T04:00:48;-1.50;99.90
15906;DHT22;8051;50.820;4.884;2023-02-28T04:03:17;-1.50;99.90
15906;DHT22;8051;50.820;4.884;2023-02-28T04:05:50;-1.40;99.90
15906;DHT22;8051;50.820;4.884;2023-02-28T04:08:20;-1.40;99.90
15906;DHT22;8051;50.820;4.884;2023-02-28T04:10:53;-1.30;99.90
15906;DHT22;8051;50.820;4.884;2023-02-28T04:13:22;-1.20;99.90
15906;DHT22;8051;50.820;4.884;2023-02-28T04:15:50;-1.20;99.90
15906;DHT22;8051;50.820;4.884;2023-02-28T04:18:17;-1.20;99.90
15906;DHT22;8051;50.820;4.884;2023-02-28T04:20:45;-1.20;99.90
15906;DHT22;8051;50.820;4.884;2023-02-28T04:23:12;-1.10;99.90
15906;DHT22;8051;50.820;4.884;2023-02-28T04:25:41;-1.10;99.90
15906;DHT22;8051;50.820;4.884;2023-02-28T04:28:09;-1.10;99.90
15906;DHT22;8051;50.820;4.884;2023-02-28T04:30:38;-1.00;99.90
15906;DHT22;8051;50.820;4.884;2023-02-28T04:33:06;-1.10;99.90
15906;DHT22;8051;50.820;4.884;2023-02-28T04:35:33;-1.00;99.90
15906;DHT22;8051;50.820;4.884;2023-02-28T04:38:01;-1.00;99.90
15906;DHT22;8051;50.820;4.884;2023-02-28T04:40:28;-0.90;99.90
15906;DHT22;8051;50.820;4.884;2023-02-28T04:42:57;-0.90;99.90
15906;DHT22;8051;50.820;4.884;2023-02-28T04:45:25;-0.90;99.90
15906;DHT22;8051;50.820;4.884;2023-02-28T04:47:52;-0.90;99.90
15906;DHT22;8051;50.820;4.884;2023-02-28T04:50:20;-0.90;99.90
15906;DHT22;8051;50.820;4.884;2023-02-28T04:52:47;-0.90;99.90
15906;DHT22;8051;50.820;4.884;2023-02-28T04:55:15;-0.90;99.90
15906;DHT22;8051;50.820;4.884;2023-02-28T04:57:42;-0.90;99.90
15906;DHT22;8051;50.820;4.884;2023-02-28T05:00:12;-1.00;99.90
15906;DHT22;8051;50.820;4.884;2023-02-28T05:02:42;-1.00;99.90
15906;DHT22;8051;50.820;4.884;2023-02-28T05:05:10;-1.10;99.90
15906;DHT22;8051;50.820;4.884;2023-02-28T05:07:42;-1.10;99.90
15906;DHT22;8051;50.820;4.884;2023-02-28T05:10:10;-1.20;99.90
15906;DHT22;8051;50.820;4.884;2023-02-28T05:12:38;-1.20;99.90
15906;DHT22;8051;50.820;4.884;2023-02-28T05:15:07;-1.30;99.90
15906;DHT22;8051;50.820;4.884;2023-02-28T05:17:37;-1.40;99.90
15906;DHT22;8051;50.820;4.884;2023-02-28T05:20:05;-1.40;99.90
15906;DHT22;8051;50.820;4.884;2023-02-28T05:22:34;-1.50;99.90
15906;DHT22;8051;50.820;4.884;2023-02-28T05:25:02;-1.50;99.90
15906;DHT22;8051;50.820;4.884;2023-02-28T05:27:30;-1.50;99.90
15906;DHT22;8051;50.820;4.884;2023-02-28T05:29:57;-1.60;99.90
15906;DHT22;8051;50.820;4.884;2023-02-28T05:32:25;-1.60;99.90
15906;DHT22;8051;50.820;4.884;2023-02-28T05:34:54;-1.60;99.90
15906;DHT22;8051;50.820;4.884;2023-02-28T05:37:21;-1.70;99.90
15906;DHT22;8051;50.820;4.884;2023-02-28T05:39:49;-1.70;99.90
15906;DHT22;8051;50.820;4.884;2023-02-28T05:42:16;-1.70;99.90
15906;DHT22;8051;50.820;4.884;2023-02-28T05:44:44;-1.70;99.90
15906;DHT22;8051;50.820;4.884;2023-02-28T05:47:11;-1.80;99.90
15906;DHT22;8051;50.820;4.884;2023-02-28T05:49:41;-1.80;99.90
15906;DHT22;8051;50.820;4.884;2023-02-28T05:52:10;-1.80;99.90
15906;DHT22;8051;50.820;4.884;2023-02-28T05:54:37;-1.80;99.90
15906;DHT22;8051;50.820;4.884;2023-02-28T05:57:05;-1.80;99.90
15906;DHT22;8051;50.820;4.884;2023-02-28T05:59:32;-1.90;99.90
15906;DHT22;8051;50.820;4.884;2023-02-28T06:02:00;-1.90;99.90
15906;DHT22;8051;50.820;4.884;2023-02-28T06:04:27;-2.00;99.90
15906;DHT22;8051;50.820;4.884;2023-02-28T06:06:55;-2.00;99.90
15906;DHT22;8051;50.820;4.884;2023-02-28T06:09:24;-2.00;99.90
15906;DHT22;8051;50.820;4.884;2023-02-28T06:11:52;-2.10;99.90
15906;DHT22;8051;50.820;4.884;2023-02-28T06:14:20;-2.10;99.90
15906;DHT22;8051;50.820;4.884;2023-02-28T06:16:48;-2.20;99.90
15906;DHT22;8051;50.820;4.884;2023-02-28T06:19:15;-2.30;99.90
15906;DHT22;8051;50.820;4.884;2023-02-28T06:21:43;-2.20;99.90
15906;DHT22;8051;50.820;4.884;2023-02-28T06:24:11;-2.30;99.90
15906;DHT22;8051;50.820;4.884;2023-02-28T06:26:40;-2.20;99.90
15906;DHT22;8051;50.820;4.884;2023-02-28T06:29:07;-2.20;99.90
15906;DHT22;8051;50.820;4.884;2023-02-28T06:31:34;-2.20;99.90
15906;DHT22;8051;50.820;4.884;2023-02-28T06:34:02;-2.20;99.90
15906;DHT22;8051;50.820;4.884;2023-02-28T06:36:29;-2.20;99.90
15906;DHT22;8051;50.820;4.884;2023-02-28T06:38:57;-2.20;99.90
15906;DHT22;8051;50.820;4.884;2023-02-28T06:41:25;-2.20;99.90
15906;DHT22;8051;50.820;4.884;2023-02-28T06:43:54;-2.20;99.90
15906;DHT22;8051;50.820;4.884;2023-02-28T06:46:21;-2.20;99.90
15906;DHT22;8051;50.820;4.884;2023-02-28T06:48:49;-2.20;99.90
15906;DHT22;8051;50.820;4.884;2023-02-28T06:51:19;-2.20;99.90
15906;DHT22;8051;50.820;4.884;2023-02-28T06:53:48;-2.20;99.90
15906;DHT22;8051;50.820;4.884;2023-02-28T06:56:16;-2.20;99.90
15906;DHT22;8051;50.820;4.884;2023-02-28T06:58:46;-2.10;99.90
15906;DHT22;8051;50.820;4.884;2023-02-28T07:01:15;-2.10;99.90
15906;DHT22;8051;50.820;4.884;2023-02-28T07:03:43;-2.00;99.90
15906;DHT22;8051;50.820;4.884;2023-02-28T07:06:10;-1.90;99.90
15906;DHT22;8051;50.820;4.884;2023-02-28T07:08:38;-1.80;99.90
15906;DHT22;8051;50.820;4.884;2023-02-28T07:11:06;-1.70;99.90
15906;DHT22;8051;50.820;4.884;2023-02-28T07:13:34;-1.60;99.90
15906;DHT22;8051;50.820;4.884;2023-02-28T07:16:04;-1.60;99.90
15906;DHT22;8051;50.820;4.884;2023-02-28T07:18:33;-1.50;99.90
15906;DHT22;8051;50.820;4.884;2023-02-28T07:21:02;-1.40;99.90
15906;DHT22;8051;50.820;4.884;2023-02-28T07:23:30;-1.30;99.90
15906;DHT22;8051;50.820;4.884;2023-02-28T07:25:57;-1.20;99.90
15906;DHT22;8051;50.820;4.884;2023-02-28T07:28:25;-1.10;99.90
15906;DHT22;8051;50.820;4.884;2023-02-28T07:30:53;-1.10;99.90
15906;DHT22;8051;50.820;4.884;2023-02-28T07:33:20;-1.00;99.90
15906;DHT22;8051;50.820;4.884;2023-02-28T07:35:51;-1.00;99.90
15906;DHT22;8051;50.820;4.884;2023-02-28T07:38:18;-0.90;99.90
15906;DHT22;8051;50.820;4.884;2023-02-28T07:40:45;-0.90;99.90
15906;DHT22;8051;50.820;4.884;2023-02-28T07:43:13;-0.80;99.90
15906;DHT22;8051;50.820;4.884;2023-02-28T07:45:40;-0.80;99.90
15906;DHT22;8051;50.820;4.884;2023-02-28T07:48:08;-0.80;99.90
15906;DHT22;8051;50.820;4.884;2023-02-28T07:50:36;-0.70;99.90
15906;DHT22;8051;50.820;4.884;2023-02-28T07:53:04;-0.70;99.90
15906;DHT22;8051;50.820;4.884;2023-02-28T07:55:32;-0.60;99.90
15906;DHT22;8051;50.820;4.884;2023-02-28T07:58:00;-0.60;99.90
15906;DHT22;8051;50.820;4.884;2023-02-28T08:00:27;-0.50;99.90
15906;DHT22;8051;50.820;4.884;2023-02-28T08:02:56;-0.40;99.90
15906;DHT22;8051;50.820;4.884;2023-02-28T08:05:24;-0.40;99.90
15906;DHT22;8051;50.820;4.884;2023-02-28T08:07:51;-0.30;99.90
15906;DHT22;8051;50.820;4.884;2023-02-28T08:10:21;-0.20;99.90
15906;DHT22;8051;50.820;4.884;2023-02-28T08:12:48;-0.20;99.90
15906;DHT22;8051;50.820;4.884;2023-02-28T08:15:16;-0.10;99.90
15906;DHT22;8051;50.820;4.884;2023-02-28T08:17:43;-0.10;99.90
15906;DHT22;8051;50.820;4.884;2023-02-28T08:20:11;-0.10;99.90
15906;DHT22;8051;50.820;4.884;2023-02-28T08:22:39;0.00;99.90
15906;DHT22;8051;50.820;4.884;2023-02-28T08:25:08;0.00;99.90
15906;DHT22;8051;50.820;4.884;2023-02-28T08:27:37;0.00;99.90
15906;DHT22;8051;50.820;4.884;2023-02-28T08:30:07;0.10;99.90
15906;DHT22;8051;50.820;4.884;2023-02-28T08:32:35;0.20;99.90
15906;DHT22;8051;50.820;4.884;2023-02-28T08:35:03;0.30;99.90
15906;DHT22;8051;50.820;4.884;2023-02-28T08:37:31;0.40;99.90
15906;DHT22;8051;50.820;4.884;2023-02-28T08:39:58;0.40;99.90
15906;DHT22;8051;50.820;4.884;2023-02-28T08:42:26;0.50;99.90
15906;DHT22;8051;50.820;4.884;2023-02-28T08:44:55;0.60;99.90
15906;DHT22;8051;50.820;4.884;2023-02-28T08:47:22;0.60;99.90
15906;DHT22;8051;50.820;4.884;2023-02-28T08:49:50;0.80;99.90
15906;DHT22;8051;50.820;4.884;2023-02-28T08:52:17;0.80;99.90
15906;DHT22;8051;50.820;4.884;2023-02-28T08:54:45;0.90;99.90
15906;DHT22;8051;50.820;4.884;2023-02-28T08:57:12;0.90;99.90
15906;DHT22;8051;50.820;4.884;2023-02-28T08:59:40;0.90;99.90
15906;DHT22;8051;50.820;4.884;2023-02-28T09:02:12;1.00;99.90
15906;DHT22;8051;50.820;4.884;2023-02-28T09:04:40;1.10;99.90
15906;DHT22;8051;50.820;4.884;2023-02-28T09:07:11;1.10;99.90
15906;DHT22;8051;50.820;4.884;2023-02-28T09:09:38;1.20;99.90
15906;DHT22;8051;50.820;4.884;2023-02-28T09:12:20;1.30;99.90
15906;DHT22;8051;50.820;4.884;2023-02-28T09:14:48;1.30;99.90
15906;DHT22;8051;50.820;4.884;2023-02-28T09:17:17;1.40;99.90
15906;DHT22;8051;50.820;4.884;2023-02-28T09:19:44;1.40;99.90
15906;DHT22;8051;50.820;4.884;2023-02-28T09:22:12;1.40;99.90
15906;DHT22;8051;50.820;4.884;2023-02-28T09:24:40;1.50;99.90
15906;DHT22;8051;50.820;4.884;2023-02-28T09:27:07;1.40;99.90
15906;DHT22;8051;50.820;4.884;2023-02-28T09:29:35;1.50;99.90
15906;DHT22;8051;50.820;4.884;2023-02-28T09:32:03;1.50;99.90
15906;DHT22;8051;50.820;4.884;2023-02-28T09:34:33;1.50;99.90
15906;DHT22;8051;50.820;4.884;2023-02-28T09:37:02;1.60;99.90
15906;DHT22;8051;50.820;4.884;2023-02-28T09:39:30;1.70;99.90
15906;DHT22;8051;50.820;4.884;2023-02-28T09:41:57;1.80;99.90
15906;DHT22;8051;50.820;4.884;2023-02-28T09:44:30;1.80;99.90
15906;DHT22;8051;50.820;4.884;2023-02-28T09:47:01;1.80;99.90
15906;DHT22;8051;50.820;4.884;2023-02-28T09:49:37;1.90;99.90
15906;DHT22;8051;50.820;4.884;2023-02-28T09:52:10;1.90;99.90
15906;DHT22;8051;50.820;4.884;2023-02-28T09:54:38;2.00;99.90
15906;DHT22;8051;50.820;4.884;2023-02-28T09:57:08;2.10;99.90
15906;DHT22;8051;50.820;4.884;2023-02-28T09:59:43;2.20;99.90
15906;DHT22;8051;50.820;4.884;2023-02-28T10:02:21;2.30;99.90
15906;DHT22;8051;50.820;4.884;2023-02-28T10:04:56;2.20;99.90
15906;DHT22;8051;50.820;4.884;2023-02-28T10:07:37;2.30;99.90
15906;DHT22;8051;50.820;4.884;2023-02-28T10:10:18;2.30;99.90
15906;DHT22;8051;50.820;4.884;2023-02-28T10:12:47;2.30;99.90
15906;DHT22;8051;50.820;4.884;2023-02-28T10:15:17;2.30;99.90
15906;DHT22;8051;50.820;4.884;2023-02-28T10:17:47;2.30;99.90
15906;DHT22;8051;50.820;4.884;2023-02-28T10:20:20;2.30;99.90
15906;DHT22;8051;50.820;4.884;2023-02-28T10:22:53;2.40;99.90
15906;DHT22;8051;50.820;4.884;2023-02-28T10:25:26;2.60;99.90
15906;DHT22;8051;50.820;4.884;2023-02-28T10:27:54;2.60;99.90
15906;DHT22;8051;50.820;4.884;2023-02-28T10:30:23;2.70;99.90
15906;DHT22;8051;50.820;4.884;2023-02-28T10:32:53;2.70;99.90
15906;DHT22;8051;50.820;4.884;2023-02-28T10:35:23;2.90;99.90
15906;DHT22;8051;50.820;4.884;2023-02-28T10:37:54;2.80;99.90
15906;DHT22;8051;50.820;4.884;2023-02-28T10:40:33;2.80;99.90
15906;DHT22;8051;50.820;4.884;2023-02-28T10:43:04;2.90;99.90
15906;DHT22;8051;50.820;4.884;2023-02-28T10:45:33;3.10;99.90
15906;DHT22;8051;50.820;4.884;2023-02-28T10:48:06;3.50;99.90
15906;DHT22;8051;50.820;4.884;2023-02-28T10:50:39;3.60;99.90
15906;DHT22;8051;50.820;4.884;2023-02-28T10:53:34;3.40;99.90
15906;DHT22;8051;50.820;4.884;2023-02-28T10:56:05;3.30;99.90
15906;DHT22;8051;50.820;4.884;2023-02-28T10:58:51;3.30;99.90
15906;DHT22;8051;50.820;4.884;2023-02-28T11:01:22;3.50;99.90
15906;DHT22;8051;50.820;4.884;2023-02-28T11:03:53;3.70;99.90
15906;DHT22;8051;50.820;4.884;2023-02-28T11:06:25;3.80;99.90
15906;DHT22;8051;50.820;4.884;2023-02-28T11:08:55;3.70;99.90
15906;DHT22;8051;50.820;4.884;2023-02-28T11:11:26;3.60;99.90
15906;DHT22;8051;50.820;4.884;2023-02-28T11:13:57;3.70;99.90
15906;DHT22;8051;50.820;4.884;2023-02-28T11:16:33;3.70;99.90
15906;DHT22;8051;50.820;4.884;2023-02-28T11:19:01;3.70;99.90
15906;DHT22;8051;50.820;4.884;2023-02-28T11:21:32;4.00;99.90
15906;DHT22;8051;50.820;4.884;2023-02-28T11:24:03;4.10;99.90
15906;DHT22;8051;50.820;4.884;2023-02-28T11:26:40;3.90;99.90
15906;DHT22;8051;50.820;4.884;2023-02-28T11:29:16;3.70;99.90
15906;DHT22;8051;50.820;4.884;2023-02-28T11:32:01;3.70;99.90
15906;DHT22;8051;50.820;4.884;2023-02-28T11:34:30;3.50;99.90
15906;DHT22;8051;50.820;4.884;2023-02-28T11:37:01;3.30;99.90
15906;DHT22;8051;50.820;4.884;2023-02-28T11:39:31;3.30;99.90
15906;DHT22;8051;50.820;4.884;2023-02-28T11:42:08;3.40;99.90
15906;DHT22;8051;50.820;4.884;2023-02-28T11:44:48;3.50;99.90
15906;DHT22;8051;50.820;4.884;2023-02-28T11:47:28;3.40;99.90
15906;DHT22;8051;50.820;4.884;2023-02-28T11:50:11;3.30;99.90
15906;DHT22;8051;50.820;4.884;2023-02-28T11:52:48;3.20;99.90
15906;DHT22;8051;50.820;4.884;2023-02-28T11:55:21;3.20;99.90
15906;DHT22;8051;50.820;4.884;2023-02-28T11:58:03;3.00;99.90
15906;DHT22;8051;50.820;4.884;2023-02-28T12:00:44;3.00;99.90
15906;DHT22;8051;50.820;4.884;2023-02-28T12:03:25;3.10;99.90
15906;DHT22;8051;50.820;4.884;2023-02-28T12:06:01;3.10;99.90
15906;DHT22;8051;50.820;4.884;2023-02-28T12:08:47;3.30;99.90
15906;DHT22;8051;50.820;4.884;2023-02-28T12:11:28;3.60;99.90
15906;DHT22;8051;50.820;4.884;2023-02-28T12:14:06;3.80;99.90
15906;DHT22;8051;50.820;4.884;2023-02-28T12:16:53;4.10;99.90
15906;DHT22;8051;50.820;4.884;2023-02-28T12:19:28;4.20;99.90
15906;DHT22;8051;50.820;4.884;2023-02-28T12:28:01;4.40;99.90
15906;DHT22;8051;50.820;4.884;2023-02-28T12:30:32;4.40;99.90
15906;DHT22;8051;50.820;4.884;2023-02-28T12:33:04;4.20;99.90
15906;DHT22;8051;50.820;4.884;2023-02-28T12:35:36;4.20;99.90
15906;DHT22;8051;50.820;4.884;2023-02-28T12:38:09;4.20;99.90
15906;DHT22;8051;50.820;4.884;2023-02-28T12:40:45;4.20;99.90
15906;DHT22;8051;50.820;4.884;2023-02-28T12:43:17;4.30;99.90
15906;DHT22;8051;50.820;4.884;2023-02-28T12:45:48;4.40;99.90
15906;DHT22;8051;50.820;4.884;2023-02-28T12:48:22;4.40;99.90
15906;DHT22;8051;50.820;4.884;2023-02-28T12:50:51;4.50;99.90
15906;DHT22;8051;50.820;4.884;2023-02-28T12:53:25;4.40;99.90
15906;DHT22;8051;50.820;4.884;2023-02-28T12:56:03;4.40;99.90
15906;DHT22;8051;50.820;4.884;2023-02-28T12:58:39;4.20;99.90
15906;DHT22;8051;50.820;4.884;2023-02-28T13:01:36;4.20;99.90
15906;DHT22;8051;50.820;4.884;2023-02-28T13:04:27;4.20;99.90
15906;DHT22;8051;50.820;4.884;2023-02-28T13:07:40;4.20;99.90
15906;DHT22;8051;50.820;4.884;2023-02-28T13:10:13;4.20;99.90
15906;DHT22;8051;50.820;4.884;2023-02-28T13:12:48;4.20;99.90
15906;DHT22;8051;50.820;4.884;2023-02-28T13:15:20;4.30;99.90
15906;DHT22;8051;50.820;4.884;2023-02-28T13:17:51;4.40;99.90
15906;DHT22;8051;50.820;4.884;2023-02-28T13:20:21;4.30;99.90
15906;DHT22;8051;50.820;4.884;2023-02-28T13:22:49;4.40;99.90
15906;DHT22;8051;50.820;4.884;2023-02-28T13:34:37;4.30;99.90
15906;DHT22;8051;50.820;4.884;2023-02-28T13:40:29;4.50;99.90
15906;DHT22;8051;50.820;4.884;2023-02-28T13:43:03;4.40;99.90
15906;DHT22;8051;50.820;4.884;2023-02-28T13:45:34;4.40;99.90
15906;DHT22;8051;50.820;4.884;2023-02-28T13:48:15;4.30;99.90
15906;DHT22;8051;50.820;4.884;2023-02-28T13:50:45;4.40;99.90
15906;DHT22;8051;50.820;4.884;2023-02-28T13:53:34;4.40;99.90
15906;DHT22;8051;50.820;4.884;2023-02-28T13:56:19;4.40;99.90
15906;DHT22;8051;50.820;4.884;2023-02-28T13:58:54;4.50;99.90
15906;DHT22;8051;50.820;4.884;2023-02-28T14:01:41;4.60;99.90
15906;DHT22;8051;50.820;4.884;2023-02-28T14:07:21;4.50;99.90
15906;DHT22;8051;50.820;4.884;2023-02-28T14:09:58;4.50;99.90
15906;DHT22;8051;50.820;4.884;2023-02-28T14:13:01;4.50;99.90
15906;DHT22;8051;50.820;4.884;2023-02-28T14:15:50;4.50;99.90
15906;DHT22;8051;50.820;4.884;2023-02-28T14:18:28;4.60;99.90
15906;DHT22;8051;50.820;4.884;2023-02-28T14:21:09;4.70;99.90
15906;DHT22;8051;50.820;4.884;2023-02-28T14:24:15;4.70;99.90
15906;DHT22;8051;50.820;4.884;2023-02-28T14:26:58;4.70;99.90
15906;DHT22;8051;50.820;4.884;2023-02-28T14:32:25;4.70;99.90
15906;DHT22;8051;50.820;4.884;2023-02-28T14:35:03;4.50;99.90
15906;DHT22;8051;50.820;4.884;2023-02-28T14:37:36;4.60;99.90
15906;DHT22;8051;50.820;4.884;2023-02-28T14:40:12;4.60;99.90
15906;DHT22;8051;50.820;4.884;2023-02-28T14:42:47;4.60;99.90
15906;DHT22;8051;50.820;4.884;2023-02-28T14:45:19;4.60;99.90
15906;DHT22;8051;50.820;4.884;2023-02-28T14:47:47;4.60;99.90
15906;DHT22;8051;50.820;4.884;2023-02-28T14:50:20;4.60;99.90
15906;DHT22;8051;50.820;4.884;2023-02-28T14:52:50;4.60;99.90
15906;DHT22;8051;50.820;4.884;2023-02-28T14:55:24;4.60;99.90
15906;DHT22;8051;50.820;4.884;2023-02-28T14:57:54;4.60;99.90
15906;DHT22;8051;50.820;4.884;2023-02-28T15:00:24;4.60;99.90
15906;DHT22;8051;50.820;4.884;2023-02-28T15:02:52;4.60;99.90
15906;DHT22;8051;50.820;4.884;2023-02-28T15:05:27;4.60;99.90
15906;DHT22;8051;50.820;4.884;2023-02-28T15:08:04;4.60;99.90
15906;DHT22;8051;50.820;4.884;2023-02-28T15:10:34;4.60;99.90
15906;DHT22;8051;50.820;4.884;2023-02-28T15:13:04;4.70;99.90
15906;DHT22;8051;50.820;4.884;2023-02-28T15:15:40;4.50;99.90
15906;DHT22;8051;50.820;4.884;2023-02-28T15:18:15;4.50;99.90
15906;DHT22;8051;50.820;4.884;2023-02-28T15:20:45;4.60;99.90
15906;DHT22;8051;50.820;4.884;2023-02-28T15:23:14;4.60;99.90
15906;DHT22;8051;50.820;4.884;2023-02-28T15:25:44;4.70;99.90
15906;DHT22;8051;50.820;4.884;2023-02-28T15:28:15;4.60;99.90
15906;DHT22;8051;50.820;4.884;2023-02-28T15:30:56;4.70;99.90
15906;DHT22;8051;50.820;4.884;2023-02-28T15:33:24;4.60;99.90
15906;DHT22;8051;50.820;4.884;2023-02-28T15:36:05;4.60;99.90
15906;DHT22;8051;50.820;4.884;2023-02-28T15:38:35;4.60;99.90
15906;DHT22;8051;50.820;4.884;2023-02-28T15:41:04;4.50;99.90
15906;DHT22;8051;50.820;4.884;2023-02-28T15:43:35;4.40;99.90
15906;DHT22;8051;50.820;4.884;2023-02-28T15:46:05;4.40;99.90
15906;DHT22;8051;50.820;4.884;2023-02-28T15:48:35;4.40;99.90
15906;DHT22;8051;50.820;4.884;2023-02-28T15:51:07;4.40;99.90
15906;DHT22;8051;50.820;4.884;2023-02-28T15:53:37;4.50;99.90
15906;DHT22;8051;50.820;4.884;2023-02-28T15:56:21;4.40;99.90
15906;DHT22;8051;50.820;4.884;2023-02-28T15:58:49;4.40;99.90
15906;DHT22;8051;50.820;4.884;2023-02-28T16:01:23;4.40;99.90
15906;DHT22;8051;50.820;4.884;2023-02-28T16:03:54;4.40;99.90
15906;DHT22;8051;50.820;4.884;2023-02-28T16:06:37;4.40;99.90
15906;DHT22;8051;50.820;4.884;2023-02-28T16:09:10;4.30;99.90
15906;DHT22;8051;50.820;4.884;2023-02-28T16:11:43;4.30;99.90
15906;DHT22;8051;50.820;4.884;2023-02-28T16:14:16;4.20;99.90
15906;DHT22;8051;50.820;4.884;2023-02-28T16:16:45;4.20;99.90
15906;DHT22;8051;50.820;4.884;2023-02-28T16:19:12;4.20;99.90
15906;DHT22;8051;50.820;4.884;2023-02-28T16:21:40;4.10;99.90
15906;DHT22;8051;50.820;4.884;2023-02-28T16:24:07;4.10;99.90
15906;DHT22;8051;50.820;4.884;2023-02-28T16:26:36;4.10;99.90
15906;DHT22;8051;50.820;4.884;2023-02-28T16:29:08;4.00;99.90
15906;DHT22;8051;50.820;4.884;2023-02-28T16:31:37;4.00;99.90
15906;DHT22;8051;50.820;4.884;2023-02-28T16:34:05;3.90;99.90
15906;DHT22;8051;50.820;4.884;2023-02-28T16:36:32;3.90;99.90
15906;DHT22;8051;50.820;4.884;2023-02-28T16:39:00;3.80;99.90
15906;DHT22;8051;50.820;4.884;2023-02-28T16:41:29;3.80;99.90
15906;DHT22;8051;50.820;4.884;2023-02-28T16:43:57;3.80;99.90
15906;DHT22;8051;50.820;4.884;2023-02-28T16:46:31;3.70;99.90
15906;DHT22;8051;50.820;4.884;2023-02-28T16:49:00;3.70;99.90
15906;DHT22;8051;50.820;4.884;2023-02-28T16:51:27;3.60;99.90
15906;DHT22;8051;50.820;4.884;2023-02-28T16:53:55;3.60;99.90
15906;DHT22;8051;50.820;4.884;2023-02-28T16:56:24;3.60;99.90
15906;DHT22;8051;50.820;4.884;2023-02-28T16:58:55;3.50;99.90